Puerto la Cruz, Venezuela
Current Conditions -  °F | °C
As of 8:00 AM on Saturday 25 Oct 2014 (Local Time) from SVBC Reporting Station
Scattered Clouds Scattered Clouds  
Wind Chill: 79°   Ceiling: Unl
Heat Index: 83°   Visibility: 6mi
Dew Point: 79°   Wind: 0mph
Humidity: 100%   Direction: NA
Pressure: 29.85"   Gusts: NA
Location:  10.17°N, 64.68°W
Report Text: SVBC 251200Z 00000KT 9999 FEW010 SCT060 26/26 Q1011
Loading
Personal Weather Stations






























Interactive Weather Map
Tropical Storm Tracking
New forecast layout! Learn more

10-Day Weather Forecast

Advertisements
Track Severe Weather on mobile